Аэропорт: Шереметьево. Москва

ICAO: UUEE

METAR:
2018/09/23 11:00
UUEE 231100Z 23005MPS 9999 BKN020 11/10 Q1009 R24C/290051 R24L/290051 NOSIG
METAR:
2018/09/23 09:24
TAF UUEE 230756Z 2309/2409 27005MPS 9999 BKN011 TX14/2312Z TN08/2403Z 
      TEMPO 2309/2312 3100 -SHRA SCT005 BKN007CB 
      BECMG 2318/2320 21003MPS